Hext, Texas
Current Conditions -  °F | °C
As of 9:15 AM on Wednesday 22 Oct 2014 (Local Time) from KBBD Reporting Station
Broken Clouds Broken Clouds  
Wind Chill: 66°   Ceiling: 8500
Heat Index: 66°   Visibility: 10mi
Dew Point: 52°   Wind: 6mph
Humidity: 60%   Direction: 140°SE
Pressure: 30.14"   Gusts: NA
Location:  30.87°N, 99.53°W
Report Text: KBBD 221415Z AUTO 14005KT 10SM BKN085 19/11 A3014 RMK
Loading
Personal Weather Stations






























Interactive Weather Map
Tropical Storm Tracking
New forecast layout! Learn more

10-Day Weather Forecast

Advertisements
Track Severe Weather on mobile